createdAt,value
2019-03-22T00:01:33.372Z,62.53
2019-03-22T00:04:00.283Z,62.37
2019-03-22T00:06:27.511Z,62.16
2019-03-22T00:08:54.347Z,63.20
2019-03-22T00:11:21.176Z,62.84
2019-03-22T00:13:48.343Z,62.63
2019-03-22T00:16:15.076Z,62.85
2019-03-22T00:18:42.029Z,62.88
2019-03-22T00:21:08.981Z,62.83
2019-03-22T00:23:35.861Z,63.10
2019-03-22T00:26:05.663Z,62.98
2019-03-22T00:28:32.627Z,62.48
2019-03-22T00:30:59.507Z,62.61
2019-03-22T00:33:26.551Z,62.61
2019-03-22T00:35:54.046Z,62.81
2019-03-22T00:38:20.993Z,62.04
2019-03-22T00:40:47.881Z,62.48
2019-03-22T00:43:14.779Z,62.49
2019-03-22T00:45:41.701Z,63.08
2019-03-22T00:48:08.586Z,62.92
2019-03-22T00:50:35.797Z,63.16
2019-03-22T00:53:02.800Z,62.97
2019-03-22T00:55:30.042Z,62.55
2019-03-22T00:57:56.908Z,63.40
2019-03-22T01:00:23.826Z,64.41
2019-03-22T01:02:51.193Z,64.86
2019-03-22T01:05:18.057Z,63.41
2019-03-22T01:07:44.809Z,62.96
2019-03-22T01:10:12.525Z,62.93
2019-03-22T01:12:39.479Z,62.84
2019-03-22T01:15:10.956Z,63.07
2019-03-22T01:17:37.767Z,63.27
2019-03-22T01:20:06.655Z,63.63
2019-03-22T01:22:33.513Z,63.84
2019-03-22T01:25:00.529Z,63.53
2019-03-22T01:27:27.533Z,63.13
2019-03-22T01:29:54.551Z,62.92
2019-03-22T01:32:21.526Z,63.47
2019-03-22T01:34:48.473Z,63.09
2019-03-22T01:37:15.478Z,62.81
2019-03-22T01:39:42.325Z,63.80
2019-03-22T01:42:09.353Z,63.89
2019-03-22T01:44:36.230Z,63.92
2019-03-22T01:47:03.181Z,64.07
2019-03-22T01:49:30.103Z,63.84
2019-03-22T01:51:56.957Z,63.84
2019-03-22T01:54:23.838Z,64.04
2019-03-22T01:56:50.855Z,64.04
2019-03-22T01:59:17.829Z,64.01
2019-03-22T02:01:44.877Z,63.64
2019-03-22T02:04:11.816Z,64.13
2019-03-22T02:06:38.722Z,64.06
2019-03-22T02:09:06.611Z,64.05
2019-03-22T02:11:33.553Z,64.01
2019-03-22T02:14:00.770Z,64.14
2019-03-22T02:16:27.685Z,64.13
2019-03-22T02:18:54.517Z,63.95
2019-03-22T02:21:21.451Z,64.48
2019-03-22T02:23:48.171Z,64.04
2019-03-22T02:26:15.043Z,64.18
2019-03-22T02:28:41.822Z,64.05
2019-03-22T02:31:08.693Z,64.46
2019-03-22T02:33:35.560Z,64.50
2019-03-22T02:36:02.446Z,64.22
2019-03-22T02:38:29.412Z,64.67
2019-03-22T02:40:56.251Z,64.47
2019-03-22T02:43:22.992Z,64.51
2019-03-22T02:45:49.933Z,64.03
2019-03-22T02:48:16.937Z,64.10
2019-03-22T02:50:43.749Z,64.31
2019-03-22T02:53:10.502Z,63.91
2019-03-22T02:55:37.481Z,64.02
2019-03-22T02:58:19.358Z,64.10
2019-03-22T03:00:33.304Z,63.69
2019-03-22T03:03:00.204Z,63.68
2019-03-22T03:05:27.463Z,63.93
2019-03-22T03:07:54.448Z,63.88
2019-03-22T03:10:21.217Z,63.92
2019-03-22T03:12:48.466Z,64.14
2019-03-22T03:15:16.578Z,63.90
2019-03-22T03:17:43.396Z,63.81
2019-03-22T03:20:15.957Z,63.87
2019-03-22T03:22:42.744Z,64.00
2019-03-22T03:25:09.741Z,64.08
2019-03-22T03:27:36.907Z,63.88
2019-03-22T03:30:10.178Z,63.96
2019-03-22T03:32:37.109Z,63.83
2019-03-22T03:35:04.816Z,63.38
2019-03-22T03:37:31.643Z,63.42
2019-03-22T03:39:58.485Z,63.23
2019-03-22T03:42:25.670Z,63.48
2019-03-22T03:44:52.636Z,63.89
2019-03-22T03:47:19.826Z,63.82
2019-03-22T03:49:46.785Z,64.09
2019-03-22T03:52:13.714Z,64.10
2019-03-22T03:54:40.914Z,63.88
2019-03-22T03:57:07.912Z,64.58
2019-03-22T03:59:35.256Z,64.67
2019-03-22T04:02:02.113Z,65.37
2019-03-22T04:04:28.942Z,65.82
2019-03-22T04:06:55.837Z,65.86
2019-03-22T04:09:23.033Z,65.90
2019-03-22T04:11:49.883Z,66.06
2019-03-22T04:14:17.146Z,66.09
2019-03-22T04:16:44.319Z,65.94
2019-03-22T04:19:11.072Z,66.43
2019-03-22T04:21:38.030Z,66.64
2019-03-22T04:24:05.021Z,66.71
2019-03-22T04:26:31.945Z,66.95
2019-03-22T04:29:07.107Z,66.29
2019-03-22T04:31:28.049Z,66.77
2019-03-22T04:33:54.959Z,66.89
2019-03-22T04:36:21.898Z,67.06
2019-03-22T04:38:48.974Z,67.08
2019-03-22T04:41:16.024Z,67.16
2019-03-22T04:43:42.928Z,66.89
2019-03-22T04:46:09.948Z,67.02
2019-03-22T04:48:36.883Z,66.64
2019-03-22T04:51:03.969Z,66.57
2019-03-22T04:53:33.945Z,66.61
2019-03-22T04:56:00.841Z,66.33
2019-03-22T04:58:28.108Z,66.47
2019-03-22T05:00:55.105Z,66.45
2019-03-22T05:03:22.070Z,66.15
2019-03-22T05:05:48.956Z,66.08
2019-03-22T05:08:16.341Z,66.02
2019-03-22T05:10:43.576Z,66.11
2019-03-22T05:13:10.521Z,66.04
2019-03-22T05:15:37.340Z,66.01
2019-03-22T05:18:04.697Z,65.54
2019-03-22T05:20:32.910Z,65.70
2019-03-22T05:22:59.743Z,65.79
2019-03-22T05:25:26.634Z,65.89
2019-03-22T05:27:53.543Z,66.01
2019-03-22T05:30:50.161Z,65.86
2019-03-22T05:33:17.964Z,64.94
2019-03-22T05:35:44.960Z,64.75
2019-03-22T05:38:12.038Z,65.20
2019-03-22T05:40:38.973Z,65.08
2019-03-22T05:43:05.990Z,64.85
2019-03-22T05:45:32.965Z,64.78
2019-03-22T05:47:59.921Z,65.00
2019-03-22T05:50:27.796Z,65.17
2019-03-22T05:52:54.825Z,64.92
2019-03-22T05:55:21.876Z,64.04
2019-03-22T05:57:48.683Z,63.98
2019-03-22T06:00:16.855Z,64.31
2019-03-22T06:02:43.776Z,64.08
2019-03-22T06:05:10.830Z,63.73
2019-03-22T06:07:37.817Z,63.07
2019-03-22T06:10:04.820Z,62.91
2019-03-22T06:12:32.315Z,62.89
2019-03-22T06:14:59.173Z,62.39
2019-03-22T06:17:25.983Z,62.57
2019-03-22T06:19:53.069Z,62.38
2019-03-22T06:22:20.127Z,62.34
2019-03-22T06:24:47.312Z,61.83
2019-03-22T06:27:14.169Z,61.73
2019-03-22T06:29:41.030Z,61.74
2019-03-22T06:32:07.979Z,61.19
2019-03-22T06:34:34.902Z,60.90
2019-03-22T06:37:01.771Z,60.89
2019-03-22T06:39:28.801Z,61.00
2019-03-22T06:41:55.636Z,60.60
2019-03-22T06:44:22.587Z,60.19
2019-03-22T06:46:49.468Z,60.30
2019-03-22T06:49:16.269Z,60.25
2019-03-22T06:51:43.224Z,59.58
2019-03-22T06:54:10.237Z,59.51
2019-03-22T06:56:37.234Z,59.42
2019-03-22T06:59:04.074Z,59.12
2019-03-22T07:01:30.942Z,58.94
2019-03-22T07:03:57.893Z,58.46
2019-03-22T07:06:25.114Z,58.12
2019-03-22T07:08:51.998Z,57.53
2019-03-22T07:11:19.605Z,57.27
2019-03-22T07:13:46.481Z,57.20
2019-03-22T07:16:13.896Z,57.00
2019-03-22T07:18:40.935Z,57.06
2019-03-22T07:21:07.795Z,57.28
2019-03-22T07:23:34.829Z,57.60
2019-03-22T07:26:01.685Z,57.51
2019-03-22T07:28:28.679Z,57.20
2019-03-22T07:30:55.631Z,57.19
2019-03-22T07:33:22.528Z,57.56
2019-03-22T07:35:49.559Z,57.46
2019-03-22T07:38:16.704Z,57.36
2019-03-22T07:40:43.934Z,57.00
2019-03-22T07:43:11.039Z,56.32
2019-03-22T07:45:37.988Z,56.90
2019-03-22T07:48:04.889Z,57.05
2019-03-22T07:50:31.938Z,56.89
2019-03-22T07:52:58.795Z,57.30
2019-03-22T07:55:26.089Z,56.38
2019-03-22T07:57:53.208Z,56.18
2019-03-22T08:00:30.284Z,56.26
2019-03-22T08:02:49.245Z,57.15
2019-03-22T08:05:16.214Z,57.22
2019-03-22T08:07:43.467Z,57.19
2019-03-22T08:10:10.406Z,56.49
2019-03-22T08:12:37.501Z,56.14
2019-03-22T08:15:08.249Z,56.61
2019-03-22T08:17:34.618Z,57.28
2019-03-22T08:20:02.331Z,57.59
2019-03-22T08:22:29.274Z,57.65
2019-03-22T08:24:56.244Z,57.59
2019-03-22T08:27:23.177Z,57.35
2019-03-22T08:29:50.299Z,57.15
2019-03-22T08:32:17.121Z,56.50
2019-03-22T08:34:44.098Z,56.61
2019-03-22T08:37:12.448Z,56.02
2019-03-22T08:39:39.363Z,56.45
2019-03-22T08:42:06.246Z,56.60
2019-03-22T08:44:33.252Z,56.76
2019-03-22T08:47:00.247Z,56.84
2019-03-22T08:49:28.332Z,56.66
2019-03-22T08:51:55.484Z,56.42
2019-03-22T08:54:22.418Z,56.51
2019-03-22T08:56:49.545Z,56.28
2019-03-22T08:59:16.621Z,56.13
2019-03-22T09:01:43.429Z,56.13
2019-03-22T09:04:10.303Z,56.04
2019-03-22T09:06:37.407Z,56.20
2019-03-22T09:09:06.093Z,56.64
2019-03-22T09:11:33.079Z,56.47
2019-03-22T09:14:00.320Z,56.72
2019-03-22T09:16:27.245Z,57.10
2019-03-22T09:18:54.175Z,57.54
2019-03-22T09:21:21.189Z,56.75
2019-03-22T09:23:48.017Z,56.33
2019-03-22T09:26:14.937Z,56.85
2019-03-22T09:28:42.133Z,57.20
2019-03-22T09:31:10.782Z,56.26
2019-03-22T09:33:38.088Z,56.92
2019-03-22T09:36:05.022Z,57.29
2019-03-22T09:38:31.909Z,57.39
2019-03-22T09:40:58.875Z,56.12
2019-03-22T09:43:25.777Z,56.63
2019-03-22T09:45:52.859Z,55.26
2019-03-22T09:48:20.039Z,56.41
2019-03-22T09:50:47.051Z,56.41
2019-03-22T09:53:14.192Z,55.32
2019-03-22T09:55:41.237Z,55.31
2019-03-22T09:58:08.136Z,54.20
2019-03-22T10:00:35.029Z,54.51
2019-03-22T10:03:02.599Z,55.75
2019-03-22T10:05:29.642Z,54.65
2019-03-22T10:07:56.735Z,54.91
2019-03-22T10:10:23.673Z,55.81
2019-03-22T10:12:50.852Z,58.30
2019-03-22T10:15:18.611Z,57.58
2019-03-22T10:17:45.587Z,57.50
2019-03-22T10:20:12.473Z,59.12
2019-03-22T10:22:39.936Z,57.96
2019-03-22T10:25:07.076Z,57.95
2019-03-22T10:27:34.724Z,58.43
2019-03-22T10:30:03.377Z,58.33
2019-03-22T10:32:30.364Z,57.30
2019-03-22T10:34:57.391Z,57.56
2019-03-22T10:37:24.244Z,58.69
2019-03-22T10:39:51.122Z,57.50
2019-03-22T10:42:18.293Z,58.79
2019-03-22T10:44:45.309Z,58.76
2019-03-22T10:47:12.212Z,58.17
2019-03-22T10:49:41.788Z,58.54
2019-03-22T10:52:08.069Z,58.71
2019-03-22T10:54:35.097Z,57.92
2019-03-22T10:57:02.261Z,57.39
2019-03-22T10:59:29.280Z,57.50
2019-03-22T11:02:03.100Z,54.87
2019-03-22T11:04:25.122Z,55.29
2019-03-22T11:06:51.931Z,52.76
2019-03-22T11:09:18.886Z,51.58
2019-03-22T11:11:45.823Z,51.33
2019-03-22T11:14:12.851Z,53.06
2019-03-22T11:16:41.495Z,54.72
2019-03-22T11:19:08.497Z,54.64
2019-03-22T11:21:35.373Z,54.49
2019-03-22T11:24:02.321Z,54.46
2019-03-22T11:26:29.627Z,55.04
2019-03-22T11:28:56.552Z,55.84
2019-03-22T11:31:28.387Z,55.75
2019-03-22T11:33:52.716Z,56.42
2019-03-22T11:36:19.567Z,55.99
2019-03-22T11:38:46.556Z,56.26
2019-03-22T11:41:13.680Z,56.35
2019-03-22T11:43:40.527Z,56.36
2019-03-22T11:46:07.385Z,56.42
2019-03-22T11:48:34.180Z,56.28
2019-03-22T11:51:01.105Z,56.18
2019-03-22T11:53:28.113Z,56.11
2019-03-22T11:55:54.919Z,56.59
2019-03-22T11:58:23.253Z,57.09
2019-03-22T12:00:50.243Z,56.50
2019-03-22T12:03:17.112Z,56.53
2019-03-22T12:05:43.980Z,55.55
2019-03-22T12:08:10.990Z,55.36
2019-03-22T12:10:37.956Z,56.06
2019-03-22T12:13:04.839Z,56.94
2019-03-22T12:15:31.695Z,57.35
2019-03-22T12:18:00.327Z,56.95
2019-03-22T12:20:27.426Z,57.37
2019-03-22T12:22:54.515Z,56.53
2019-03-22T12:25:23.103Z,57.04
2019-03-22T12:27:50.023Z,56.57
2019-03-22T12:30:17.393Z,57.02
2019-03-22T12:32:44.287Z,58.17
2019-03-22T12:35:12.069Z,58.39
2019-03-22T12:37:38.967Z,58.47
2019-03-22T12:40:09.506Z,57.43
2019-03-22T12:42:36.423Z,57.42
2019-03-22T12:45:12.536Z,58.04
2019-03-22T12:47:39.586Z,58.73
2019-03-22T12:50:06.744Z,58.50
2019-03-22T12:52:33.879Z,57.48
2019-03-22T12:55:00.817Z,57.05
2019-03-22T12:57:27.853Z,56.38
2019-03-22T12:59:54.773Z,56.71
2019-03-22T13:02:21.816Z,57.39
2019-03-22T13:04:48.763Z,57.56
2019-03-22T13:07:16.143Z,57.50
2019-03-22T13:09:43.061Z,58.08
2019-03-22T13:12:10.210Z,58.83
2019-03-22T13:14:37.205Z,58.45
2019-03-22T13:17:04.126Z,59.02
2019-03-22T13:19:31.177Z,59.20
2019-03-22T13:21:58.074Z,59.61
2019-03-22T13:24:24.942Z,59.53
2019-03-22T13:26:51.855Z,59.18
2019-03-22T13:29:18.917Z,59.92
2019-03-22T13:31:45.724Z,59.64
2019-03-22T13:34:12.555Z,59.10
2019-03-22T13:36:39.426Z,59.72
2019-03-22T13:39:06.891Z,59.86
2019-03-22T13:41:33.855Z,60.59
2019-03-22T13:44:00.714Z,60.51
2019-03-22T13:46:27.437Z,59.57
2019-03-22T13:48:54.347Z,59.93
2019-03-22T13:51:21.363Z,59.98
2019-03-22T13:53:48.294Z,60.86
2019-03-22T13:56:15.333Z,60.96
2019-03-22T13:58:43.629Z,60.68
2019-03-22T14:01:10.695Z,61.06
2019-03-22T14:03:37.589Z,61.29
2019-03-22T14:06:04.489Z,61.43
2019-03-22T14:08:31.744Z,61.28
2019-03-22T14:10:58.723Z,61.54
2019-03-22T14:13:28.219Z,57.51
2019-03-22T14:15:55.039Z,57.51
2019-03-22T14:18:22.021Z,56.06
2019-03-22T14:20:49.091Z,61.82
2019-03-22T14:23:15.973Z,58.49
2019-03-22T14:25:42.801Z,60.51
2019-03-22T14:28:09.684Z,60.46
2019-03-22T14:30:36.603Z,61.04
2019-03-22T14:33:12.980Z,60.94
2019-03-22T14:35:32.319Z,61.83
2019-03-22T14:37:59.166Z,62.27
2019-03-22T14:40:25.979Z,61.41
2019-03-22T14:42:52.903Z,61.19
2019-03-22T14:45:19.695Z,62.29
2019-03-22T14:47:46.574Z,63.27
2019-03-22T14:50:13.556Z,63.78
2019-03-22T14:52:40.481Z,64.81
2019-03-22T14:55:07.295Z,65.17
2019-03-22T14:57:34.156Z,64.99
2019-03-22T15:00:01.134Z,65.00
2019-03-22T15:02:27.888Z,64.96
2019-03-22T15:04:54.732Z,65.57
2019-03-22T15:07:21.633Z,65.65
2019-03-22T15:09:48.444Z,65.45
2019-03-22T15:12:17.280Z,65.28
2019-03-22T15:14:46.061Z,65.00
2019-03-22T15:17:30.401Z,64.89
2019-03-22T15:20:15.968Z,65.23
2019-03-22T15:23:01.532Z,64.73
2019-03-22T15:25:47.039Z,65.62
2019-03-22T15:28:32.594Z,64.92
2019-03-22T15:31:07.794Z,64.12
2019-03-22T15:33:42.280Z,63.89
2019-03-22T15:36:13.814Z,63.91
2019-03-22T15:38:45.656Z,64.05
2019-03-22T15:41:12.776Z,64.18
2019-03-22T15:43:39.728Z,64.32
2019-03-22T15:46:06.556Z,64.12
2019-03-22T15:48:33.904Z,64.18
2019-03-22T15:51:00.779Z,64.24
2019-03-22T15:53:27.554Z,64.11
2019-03-22T15:55:54.504Z,64.01
2019-03-22T15:58:21.291Z,63.97
2019-03-22T16:00:48.184Z,64.39
2019-03-22T16:03:15.244Z,64.47
2019-03-22T16:05:42.255Z,64.65
2019-03-22T16:08:09.098Z,64.84
2019-03-22T16:10:36.106Z,65.18
2019-03-22T16:13:02.921Z,64.31
2019-03-22T16:15:29.791Z,65.17
2019-03-22T16:17:56.648Z,64.72
2019-03-22T16:20:23.604Z,64.50
2019-03-22T16:22:50.407Z,64.84
2019-03-22T16:25:17.230Z,64.91
2019-03-22T16:27:45.547Z,65.22
2019-03-22T16:30:13.713Z,65.77
2019-03-22T16:32:40.640Z,64.79
2019-03-22T16:35:07.921Z,65.00
2019-03-22T16:37:34.829Z,65.23
2019-03-22T16:40:01.760Z,65.62
2019-03-22T16:42:28.606Z,65.82
2019-03-22T16:44:55.523Z,66.52
2019-03-22T16:47:22.316Z,66.36
2019-03-22T16:49:49.309Z,66.27
2019-03-22T16:52:16.160Z,65.93
2019-03-22T16:54:43.138Z,65.99
2019-03-22T16:57:10.121Z,65.81
2019-03-22T16:59:36.872Z,65.44
2019-03-22T17:02:03.739Z,65.34
2019-03-22T17:04:30.756Z,65.43
2019-03-22T17:06:57.711Z,65.70
2019-03-22T17:09:24.590Z,66.46
2019-03-22T17:11:51.707Z,65.98
2019-03-22T17:14:18.537Z,66.17
2019-03-22T17:16:45.486Z,66.24
2019-03-22T17:19:12.464Z,67.15
2019-03-22T17:21:39.323Z,67.62
2019-03-22T17:24:06.373Z,68.15
2019-03-22T17:26:33.371Z,68.05
2019-03-22T17:29:00.114Z,67.60
2019-03-22T17:31:26.941Z,67.58
2019-03-22T17:33:53.889Z,67.39
2019-03-22T17:36:20.731Z,66.90
2019-03-22T17:38:47.623Z,67.11
2019-03-22T17:41:14.666Z,67.49
2019-03-22T17:43:41.572Z,66.88
2019-03-22T17:46:09.564Z,67.01
2019-03-22T17:48:36.368Z,67.11
2019-03-22T17:51:03.205Z,67.29
2019-03-22T17:53:30.092Z,67.72
2019-03-22T17:55:56.971Z,67.45
2019-03-22T17:58:23.902Z,67.83
2019-03-22T18:00:51.232Z,67.92
2019-03-22T18:03:18.041Z,68.07
2019-03-22T18:05:44.862Z,68.07
2019-03-22T18:08:11.775Z,67.64
2019-03-22T18:10:38.720Z,67.32
2019-03-22T18:13:05.706Z,67.52
2019-03-22T18:15:32.582Z,67.64
2019-03-22T18:17:59.647Z,67.61
2019-03-22T18:20:26.481Z,68.06
2019-03-22T18:22:53.386Z,67.90
2019-03-22T18:25:23.013Z,67.85
2019-03-22T18:27:49.903Z,68.20
2019-03-22T18:30:16.631Z,68.38
2019-03-22T18:32:43.504Z,68.11
2019-03-22T18:35:10.610Z,68.49
2019-03-22T18:37:37.415Z,68.70
2019-03-22T18:40:06.850Z,69.43
2019-03-22T18:42:33.740Z,69.45
2019-03-22T18:45:00.779Z,69.96
2019-03-22T18:47:27.755Z,69.59
2019-03-22T18:49:54.747Z,69.61
2019-03-22T18:52:23.954Z,69.70
2019-03-22T18:54:50.812Z,70.97
2019-03-22T18:57:17.820Z,71.26
2019-03-22T18:59:44.584Z,70.38
2019-03-22T19:02:11.564Z,70.48
2019-03-22T19:04:43.949Z,70.51
2019-03-22T19:07:07.338Z,71.31
2019-03-22T19:09:34.311Z,71.98
2019-03-22T19:12:01.097Z,71.91
2019-03-22T19:14:28.001Z,72.02
2019-03-22T19:16:54.735Z,71.57
2019-03-22T19:19:24.780Z,71.31
2019-03-22T19:21:51.593Z,70.86
2019-03-22T19:24:21.091Z,72.06
2019-03-22T19:26:48.061Z,72.52
2019-03-22T19:29:14.871Z,72.52
2019-03-22T19:31:41.840Z,72.46
2019-03-22T19:34:08.974Z,73.17
2019-03-22T19:36:35.773Z,73.19
2019-03-22T19:39:05.140Z,72.79
2019-03-22T19:41:32.305Z,72.92
2019-03-22T19:43:59.041Z,72.44
2019-03-22T19:46:25.848Z,72.77
2019-03-22T19:48:52.695Z,72.54
2019-03-22T19:51:19.454Z,72.66
2019-03-22T19:53:46.354Z,72.71
2019-03-22T19:56:13.264Z,73.14
2019-03-22T19:58:40.177Z,73.13
2019-03-22T20:01:07.062Z,73.08
2019-03-22T20:03:34.021Z,73.25
2019-03-22T20:06:00.947Z,73.57
2019-03-22T20:08:28.181Z,73.41
2019-03-22T20:10:55.092Z,73.68
2019-03-22T20:13:22.296Z,74.04
2019-03-22T20:15:49.094Z,73.98
2019-03-22T20:18:16.082Z,74.14
2019-03-22T20:20:43.194Z,74.29
2019-03-22T20:23:10.120Z,74.37
2019-03-22T20:25:39.143Z,74.52
2019-03-22T20:28:06.079Z,74.47
2019-03-22T20:30:32.949Z,74.29
2019-03-22T20:33:02.750Z,74.87
2019-03-22T20:35:29.748Z,74.78
2019-03-22T20:37:56.645Z,76.05
2019-03-22T20:40:23.457Z,75.49
2019-03-22T20:42:50.333Z,74.84
2019-03-22T20:45:24.069Z,74.50
2019-03-22T20:47:46.000Z,74.96
2019-03-22T20:50:12.917Z,75.09
2019-03-22T20:52:39.719Z,74.42
2019-03-22T20:55:07.338Z,74.43
2019-03-22T20:57:34.389Z,74.51
2019-03-22T21:00:02.086Z,74.47
2019-03-22T21:02:28.928Z,74.84
2019-03-22T21:04:56.269Z,74.97
2019-03-22T21:07:23.081Z,74.66
2019-03-22T21:09:50.014Z,75.03
2019-03-22T21:12:17.089Z,74.81
2019-03-22T21:14:43.909Z,74.92
2019-03-22T21:17:10.791Z,75.45
2019-03-22T21:19:37.604Z,75.83
2019-03-22T21:22:04.591Z,75.14
2019-03-22T21:24:31.347Z,75.17
2019-03-22T21:26:58.221Z,75.33
2019-03-22T21:29:25.029Z,76.41
2019-03-22T21:31:51.959Z,77.03
2019-03-22T21:34:19.241Z,76.90
2019-03-22T21:36:46.100Z,76.72
2019-03-22T21:39:12.892Z,77.17
2019-03-22T21:41:39.935Z,76.83
2019-03-22T21:44:06.741Z,76.54
2019-03-22T21:46:33.512Z,76.39
2019-03-22T21:49:00.337Z,76.78
2019-03-22T21:51:27.102Z,77.88
2019-03-22T21:53:53.850Z,78.05
2019-03-22T21:56:20.614Z,78.34
2019-03-22T21:58:47.580Z,79.55
2019-03-22T22:01:14.469Z,80.49
2019-03-22T22:03:41.278Z,80.98
2019-03-22T22:06:08.112Z,81.38
2019-03-22T22:08:34.990Z,81.16
2019-03-22T22:11:01.702Z,80.74
2019-03-22T22:13:28.425Z,82.29
2019-03-22T22:15:55.171Z,81.62
2019-03-22T22:18:22.051Z,80.44
2019-03-22T22:20:48.855Z,81.15
2019-03-22T22:23:15.734Z,81.89
2019-03-22T22:25:42.479Z,81.54
2019-03-22T22:28:09.225Z,81.81
2019-03-22T22:30:37.443Z,81.98
2019-03-22T22:33:04.355Z,82.61
2019-03-22T22:35:31.113Z,83.62
2019-03-22T22:37:57.825Z,83.89
2019-03-22T22:40:24.677Z,83.70
2019-03-22T22:42:51.511Z,84.51
2019-03-22T22:45:18.328Z,84.95
2019-03-22T22:47:45.094Z,86.06
2019-03-22T22:50:11.931Z,84.86
2019-03-22T22:52:38.823Z,85.00
2019-03-22T22:55:05.910Z,85.10
2019-03-22T22:57:32.764Z,84.94
2019-03-22T22:59:59.757Z,85.15
2019-03-22T23:02:26.571Z,85.57
2019-03-22T23:04:53.287Z,85.08
2019-03-22T23:07:20.288Z,84.96
2019-03-22T23:09:47.137Z,85.69
2019-03-22T23:12:14.020Z,85.52
2019-03-22T23:14:40.880Z,84.71
2019-03-22T23:17:07.724Z,85.61
2019-03-22T23:19:34.602Z,86.07
2019-03-22T23:22:02.746Z,86.77
2019-03-22T23:24:29.574Z,85.72
2019-03-22T23:26:56.728Z,85.11
2019-03-22T23:29:23.614Z,85.76
2019-03-22T23:31:50.461Z,86.56
2019-03-22T23:34:17.393Z,86.81
2019-03-22T23:36:44.292Z,87.03
2019-03-22T23:39:11.123Z,88.00
2019-03-22T23:41:37.978Z,88.94
2019-03-22T23:44:04.909Z,86.75
2019-03-22T23:46:31.809Z,88.41
2019-03-22T23:48:58.666Z,86.06
2019-03-22T23:51:25.573Z,85.78
2019-03-22T23:53:52.369Z,85.62
2019-03-22T23:56:19.294Z,85.24
2019-03-22T23:58:46.077Z,84.51
